Time;durP1;ratioP1;P1;durP2;ratioP2;P2;SDS_P1;SDS_P2;PMS_P1;PMS_P2;Temp;Humidity;BMP_temperature;BMP_pressure;BME280_temperature;BME280_humidity;BME280_pressure;Samples;Min_cycle;Max_cycle;Signal;HPM_P1;HPM_P2
2021/06/10 00:00:15;;;;;;;8.90;5.60;;;20.50;71.50;;;;;;5036399;28;20482;-86
2021/06/10 00:02:41;;;;;;;7.18;4.18;;;20.50;71.50;;;;;;5068386;28;20044;-86
2021/06/10 00:05:20;;;;;;;4.35;2.72;;;20.50;71.90;;;;;;5038878;28;20835;-86
2021/06/10 00:07:53;;;;;;;4.63;2.60;;;20.40;72.00;;;;;;5064704;28;20016;-86
2021/06/10 00:10:21;;;;;;;3.88;2.60;;;20.40;72.30;;;;;;5048690;28;20017;-86
2021/06/10 00:12:47;;;;;;;3.42;2.30;;;20.40;72.70;;;;;;5054047;28;20021;-86
2021/06/10 00:18:35;;;;;;;10.82;7.05;;;20.30;73.30;;;;;;5072150;28;20043;-86
2021/06/10 00:21:01;;;;;;;38.25;25.90;;;20.20;72.90;;;;;;5038017;28;20024;-86
2021/06/10 00:23:26;;;;;;;28.98;18.40;;;20.20;73.20;;;;;;5038125;28;20048;-86
2021/06/10 00:25:52;;;;;;;15.23;10.65;;;20.20;73.50;;;;;;5054989;28;20545;-86
2021/06/10 00:28:18;;;;;;;9.32;6.75;;;20.20;73.70;;;;;;5051107;28;20040;-86
2021/06/10 00:30:43;;;;;;;7.57;4.40;;;20.10;73.90;;;;;;5067123;28;20032;-87
2021/06/10 00:33:10;;;;;;;4.65;3.22;;;20.10;73.90;;;;;;5054654;28;20024;-86
2021/06/10 00:35:36;;;;;;;5.95;3.20;;;20.10;73.90;;;;;;5038195;28;20555;-86
2021/06/10 00:38:03;;;;;;;5.72;3.63;;;20.00;73.90;;;;;;5038247;28;20059;-86
2021/06/10 00:40:31;;;;;;;3.88;2.70;;;20.00;74.20;;;;;;5072486;28;20168;-86
2021/06/10 00:42:58;;;;;;;4.63;2.70;;;20.00;74.50;;;;;;5054470;28;20174;-86
2021/06/10 00:45:24;;;;;;;3.40;2.20;;;20.00;74.60;;;;;;5050778;28;20041;-86
2021/06/10 00:47:51;;;;;;;4.60;2.63;;;19.90;74.70;;;;;;5051598;28;20020;-86
2021/06/10 00:50:34;;;;;;;4.82;2.65;;;19.90;74.60;;;;;;5054327;28;20083;-86
2021/06/10 00:53:00;;;;;;;3.63;2.35;;;19.90;75.00;;;;;;5054168;28;20032;-86
2021/06/10 00:55:26;;;;;;;4.43;2.42;;;19.80;74.90;;;;;;5021289;28;20545;-86
2021/06/10 00:57:52;;;;;;;4.88;2.63;;;19.80;75.40;;;;;;5054260;28;20009;-86
2021/06/10 01:00:20;;;;;;;3.65;2.50;;;19.70;75.40;;;;;;5051102;28;20033;-86
2021/06/10 01:02:45;;;;;;;3.47;2.20;;;19.70;75.20;;;;;;5075897;28;20029;-86
2021/06/10 01:05:12;;;;;;;4.28;2.58;;;19.70;75.40;;;;;;5021213;28;20397;-86
2021/06/10 01:07:52;;;;;;;3.53;2.42;;;19.60;75.60;;;;;;5037839;28;20037;-86
2021/06/10 01:10:32;;;;;;;3.67;2.33;;;19.60;75.50;;;;;;5059489;28;20032;-86
2021/06/10 01:13:29;;;;;;;3.78;2.50;;;19.60;75.30;;;;;;5084117;22;20030;-84
2021/06/10 01:15:58;;;;;;;3.72;2.78;;;19.50;75.30;;;;;;5094202;28;20039;-84
2021/06/10 01:18:26;;;;;;;4.88;2.75;;;19.50;75.30;;;;;;5089960;28;20016;-83
2021/06/10 01:20:54;;;;;;;4.93;3.00;;;19.50;75.00;;;;;;5073923;28;20046;-84
2021/06/10 01:23:32;;;;;;;6.65;3.10;;;19.40;74.80;;;;;;5076651;28;20023;-84
2021/06/10 01:26:25;;;;;;;4.38;2.58;;;19.40;74.70;;;;;;5093933;28;20024;-84
2021/06/10 01:28:52;;;;;;;4.15;2.72;;;19.30;75.10;;;;;;5092383;28;20020;-84
2021/06/10 01:31:18;;;;;;;4.32;2.70;;;19.30;74.90;;;;;;5089351;28;20024;-84
2021/06/10 01:33:53;;;;;;;4.57;2.80;;;19.20;75.30;;;;;;5083897;28;20132;-84
2021/06/10 01:36:25;;;;;;;6.38;2.80;;;19.20;76.20;;;;;;5098089;28;20028;-84
2021/06/10 01:38:54;;;;;;;4.32;2.90;;;19.10;76.30;;;;;;5097732;28;20110;-84
2021/06/10 01:41:21;;;;;;;3.78;2.83;;;19.10;76.40;;;;;;5088145;28;20043;-84
2021/06/10 01:43:47;;;;;;;4.03;2.95;;;19.00;76.80;;;;;;5079401;28;20036;-84
2021/06/10 01:46:13;;;;;;;4.72;3.10;;;19.00;77.20;;;;;;5089689;28;20031;-84
2021/06/10 01:48:49;;;;;;;5.40;3.00;;;19.00;76.90;;;;;;5057619;28;20432;-83
2021/06/10 01:51:17;;;;;;;4.55;3.15;;;19.00;77.70;;;;;;5080911;28;20073;-84
2021/06/10 01:53:45;;;;;;;5.93;2.85;;;18.90;78.20;;;;;;5081047;28;20472;-84
2021/06/10 01:56:13;;;;;;;4.35;3.20;;;18.90;78.60;;;;;;5097624;28;20012;-84
2021/06/10 01:58:42;;;;;;;4.78;3.47;;;18.80;78.70;;;;;;5097566;28;20015;-84
2021/06/10 02:01:08;;;;;;;5.20;3.28;;;18.80;79.70;;;;;;5097452;28;20031;-84
2021/06/10 02:03:35;;;;;;;4.15;2.50;;;18.70;79.00;;;;;;5097431;28;20132;-84
2021/06/10 02:06:01;;;;;;;3.92;2.90;;;18.70;79.20;;;;;;5066486;28;20495;-84
2021/06/10 02:08:28;;;;;;;4.65;3.08;;;18.70;79.70;;;;;;5115581;28;20023;-84
2021/06/10 02:10:56;;;;;;;4.90;3.03;;;18.60;79.80;;;;;;5076804;28;20044;-84
2021/06/10 02:13:24;;;;;;;5.13;3.03;;;18.60;79.80;;;;;;5097069;28;20118;-84
2021/06/10 02:15:53;;;;;;;4.60;3.00;;;18.60;79.80;;;;;;5080599;28;20037;-84
2021/06/10 02:18:19;;;;;;;6.10;2.85;;;18.60;80.20;;;;;;5093307;28;20468;-84
2021/06/10 02:20:45;;;;;;;3.95;3.33;;;18.50;80.00;;;;;;5086857;28;20476;-84
2021/06/10 02:23:11;;;;;;;5.97;3.28;;;18.40;79.90;;;;;;5061779;28;20102;-84
2021/06/10 02:25:37;;;;;;;4.28;3.00;;;18.40;80.20;;;;;;5102750;28;20542;-84
2021/06/10 02:28:04;;;;;;;5.82;3.03;;;18.30;80.60;;;;;;5097148;28;20122;-84
2021/06/10 02:30:31;;;;;;;6.57;3.25;;;18.30;80.40;;;;;;5091061;28;20027;-84
2021/06/10 02:32:57;;;;;;;4.57;3.00;;;18.30;80.50;;;;;;5088710;28;20020;-84
2021/06/10 02:35:23;;;;;;;4.43;2.85;;;18.20;80.40;;;;;;5055820;28;20021;-84
2021/06/10 02:37:53;;;;;;;5.10;3.03;;;18.10;80.70;;;;;;5059647;28;20076;-84
2021/06/10 02:40:26;;;;;;;5.63;2.80;;;18.10;81.20;;;;;;5094422;28;20031;-84
2021/06/10 02:42:54;;;;;;;5.88;3.25;;;18.10;81.40;;;;;;5104061;28;20020;-84
2021/06/10 02:45:20;;;;;;;4.75;3.35;;;18.00;81.30;;;;;;5095075;28;20031;-84
2021/06/10 02:47:47;;;;;;;5.00;3.20;;;18.10;81.50;;;;;;5076411;28;20073;-84
2021/06/10 02:50:17;;;;;;;4.10;2.92;;;18.00;82.20;;;;;;5090172;28;20028;-84
2021/06/10 02:52:49;;;;;;;5.75;3.45;;;17.90;82.10;;;;;;5100691;28;20102;-84
2021/06/10 02:55:17;;;;;;;5.68;3.45;;;17.90;82.10;;;;;;5096601;28;20013;-84
2021/06/10 02:57:47;;;;;;;4.22;3.05;;;17.90;82.10;;;;;;5096275;28;20030;-84
2021/06/10 03:00:14;;;;;;;5.72;3.30;;;17.90;82.20;;;;;;5096404;28;20489;-84
2021/06/10 03:02:40;;;;;;;4.70;3.63;;;17.90;82.30;;;;;;5079506;28;20050;-84
2021/06/10 03:05:06;;;;;;;6.00;3.70;;;17.90;82.20;;;;;;5062767;28;20035;-84
2021/06/10 03:07:37;;;;;;;8.63;3.70;;;17.90;82.40;;;;;;5060452;28;20035;-84
2021/06/10 03:10:07;;;;;;;7.03;4.38;;;17.90;82.40;;;;;;5085064;28;20114;-84
2021/06/10 03:12:34;;;;;;;6.80;3.70;;;17.90;82.40;;;;;;5096267;28;20016;-84
2021/06/10 03:15:01;;;;;;;3.85;3.25;;;17.90;82.40;;;;;;5079266;28;20040;-84
2021/06/10 03:17:27;;;;;;;7.00;3.10;;;17.80;82.30;;;;;;5062757;28;20024;-84
2021/06/10 03:19:53;;;;;;;6.90;3.50;;;17.80;82.50;;;;;;5078998;28;20015;-84
2021/06/10 03:22:19;;;;;;;6.97;3.90;;;17.80;82.30;;;;;;5068479;28;20082;-84
2021/06/10 03:24:45;;;;;;;5.35;3.40;;;17.80;82.30;;;;;;5075816;28;20099;-84
2021/06/10 03:27:13;;;;;;;6.35;3.58;;;17.70;82.30;;;;;;5079068;28;20063;-84
2021/06/10 03:29:40;;;;;;;5.35;3.10;;;17.70;82.30;;;;;;5094399;28;20368;-84
2021/06/10 03:32:06;;;;;;;7.68;3.95;;;17.70;82.40;;;;;;5083058;28;20015;-84
2021/06/10 03:34:33;;;;;;;5.43;3.92;;;17.70;82.60;;;;;;5095735;28;20372;-84
2021/06/10 03:37:00;;;;;;;6.10;3.58;;;17.70;82.70;;;;;;5094072;28;20443;-84
2021/06/10 03:39:28;;;;;;;5.28;3.63;;;17.60;82.60;;;;;;5070976;28;20023;-84
2021/06/10 03:41:55;;;;;;;5.28;3.78;;;17.60;82.80;;;;;;5095385;28;20023;-84
2021/06/10 03:44:22;;;;;;;4.97;3.80;;;17.60;82.90;;;;;;5068455;28;20028;-84
2021/06/10 03:46:48;;;;;;;4.47;3.63;;;17.60;83.20;;;;;;5072583;28;20030;-84
2021/06/10 03:49:14;;;;;;;5.75;4.00;;;17.60;83.30;;;;;;5066742;28;20024;-84
2021/06/10 03:51:39;;;;;;;5.75;4.20;;;17.60;83.40;;;;;;5044087;28;20029;-84
2021/06/10 03:54:08;;;;;;;5.07;3.97;;;17.60;83.60;;;;;;5071733;28;20363;-84
2021/06/10 03:56:34;;;;;;;5.60;4.38;;;17.50;83.70;;;;;;5051259;28;20086;-84
2021/06/10 03:59:00;;;;;;;6.38;4.28;;;17.60;84.10;;;;;;5089199;28;20048;-84
2021/06/10 04:01:26;;;;;;;6.88;4.93;;;17.60;84.30;;;;;;5075167;28;20495;-84
2021/06/10 04:03:51;;;;;;;5.55;4.32;;;17.60;84.50;;;;;;5075151;28;20027;-84
2021/06/10 04:06:19;;;;;;;5.60;3.97;;;17.60;84.60;;;;;;5069404;28;20032;-84
2021/06/10 04:08:45;;;;;;;5.63;4.30;;;17.60;84.60;;;;;;5073448;28;20024;-84
2021/06/10 04:11:11;;;;;;;5.65;4.13;;;17.50;85.00;;;;;;5070868;28;20366;-84
2021/06/10 04:13:36;;;;;;;6.78;4.20;;;17.50;84.90;;;;;;5071022;28;20043;-84
2021/06/10 04:16:03;;;;;;;6.03;4.68;;;17.50;84.90;;;;;;5077891;28;20031;-84
2021/06/10 04:18:28;;;;;;;5.63;4.45;;;17.50;85.00;;;;;;5078100;28;20047;-84
2021/06/10 04:20:54;;;;;;;5.28;4.10;;;17.50;85.10;;;;;;5081381;28;20481;-83
2021/06/10 04:23:20;;;;;;;5.63;4.38;;;17.50;85.10;;;;;;5070262;28;20032;-84
2021/06/10 04:25:46;;;;;;;5.80;4.28;;;17.60;85.20;;;;;;5074615;28;20036;-84
2021/06/10 04:28:12;;;;;;;6.50;4.45;;;17.60;85.40;;;;;;5088615;28;20069;-84
2021/06/10 04:30:37;;;;;;;6.72;4.30;;;17.50;85.60;;;;;;5084050;28;20023;-84
2021/06/10 04:33:03;;;;;;;6.45;4.45;;;17.60;85.80;;;;;;5077729;28;20465;-84
2021/06/10 04:35:29;;;;;;;6.00;4.38;;;17.60;85.90;;;;;;5077928;28;20024;-84
2021/06/10 04:37:55;;;;;;;5.07;3.80;;;17.60;86.00;;;;;;5044360;28;20020;-84
2021/06/10 04:40:21;;;;;;;7.78;4.50;;;17.60;86.00;;;;;;5060058;28;20031;-84
2021/06/10 04:42:46;;;;;;;5.55;4.25;;;17.60;86.20;;;;;;5094673;28;20035;-84
2021/06/10 04:45:13;;;;;;;5.53;4.53;;;17.60;86.40;;;;;;5091250;28;20077;-84
2021/06/10 04:47:38;;;;;;;5.25;4.05;;;17.60;86.50;;;;;;5067171;28;20123;-84
2021/06/10 04:50:06;;;;;;;6.28;4.55;;;17.70;86.60;;;;;;5060739;28;20129;-84
2021/06/10 04:52:32;;;;;;;6.30;4.45;;;17.70;86.60;;;;;;5070137;28;20120;-84
2021/06/10 04:54:58;;;;;;;6.55;5.10;;;17.70;86.40;;;;;;5106104;28;20053;-84
2021/06/10 04:57:23;;;;;;;6.10;3.88;;;17.70;86.90;;;;;;5063290;28;20376;-84
2021/06/10 04:59:49;;;;;;;6.03;4.40;;;17.70;86.50;;;;;;5082568;28;20081;-84
2021/06/10 05:02:15;;;;;;;6.00;4.38;;;17.70;86.70;;;;;;5060935;28;20016;-84
2021/06/10 05:04:40;;;;;;;6.55;4.78;;;17.70;86.80;;;;;;5077541;28;20027;-84
2021/06/10 05:07:31;;;;;;;8.73;5.00;;;17.70;86.80;;;;;;5077327;28;20020;-83
2021/06/10 05:09:57;;;;;;;7.15;5.20;;;17.70;86.90;;;;;;5094252;28;20024;-84
2021/06/10 05:12:23;;;;;;;7.82;5.28;;;17.80;86.90;;;;;;5094236;28;20575;-84
2021/06/10 05:14:48;;;;;;;8.90;5.70;;;17.80;86.60;;;;;;5079733;28;20203;-84
2021/06/10 05:17:14;;;;;;;8.20;6.10;;;17.80;86.30;;;;;;5077548;28;20035;-84
2021/06/10 05:19:39;;;;;;;7.72;5.25;;;17.80;86.20;;;;;;5077187;28;20030;-83
2021/06/10 05:22:05;;;;;;;9.45;6.55;;;17.80;86.00;;;;;;5084885;28;20161;-84
2021/06/10 05:24:31;;;;;;;8.20;6.20;;;17.80;86.00;;;;;;5089125;28;20468;-84
2021/06/10 05:26:56;;;;;;;9.35;6.70;;;17.80;86.00;;;;;;5070359;28;20050;-84
2021/06/10 05:29:23;;;;;;;8.27;5.93;;;17.80;85.60;;;;;;5079002;28;20081;-84
2021/06/10 05:31:50;;;;;;;8.23;6.43;;;17.80;85.70;;;;;;5112071;28;20063;-83
2021/06/10 05:34:15;;;;;;;8.45;6.30;;;17.80;85.80;;;;;;5066046;28;20384;-84
2021/06/10 05:36:41;;;;;;;9.30;5.88;;;17.90;85.70;;;;;;5070953;28;20024;-84
2021/06/10 05:39:07;;;;;;;8.57;5.80;;;17.90;85.50;;;;;;5066288;28;20063;-84
2021/06/10 05:41:32;;;;;;;7.53;5.68;;;18.00;85.40;;;;;;5079627;28;20021;-84
2021/06/10 05:43:58;;;;;;;8.93;6.60;;;18.00;85.00;;;;;;5070070;28;20052;-84
2021/06/10 05:46:24;;;;;;;10.00;6.18;;;18.10;85.00;;;;;;5057007;28;20028;-84
2021/06/10 05:48:50;;;;;;;8.35;7.10;;;18.10;84.90;;;;;;5076274;28;20028;-84
2021/06/10 05:51:16;;;;;;;7.72;6.53;;;18.20;84.50;;;;;;5082759;28;20369;-84
2021/06/10 05:53:42;;;;;;;9.65;8.00;;;18.20;84.30;;;;;;5087917;28;20027;-84
2021/06/10 05:56:07;;;;;;;8.23;6.60;;;18.30;84.10;;;;;;5083162;28;20028;-83
2021/06/10 05:58:33;;;;;;;9.18;6.85;;;18.30;84.10;;;;;;5058976;28;20061;-84
2021/06/10 06:00:59;;;;;;;9.80;7.20;;;18.40;84.20;;;;;;5073635;28;20028;-84
2021/06/10 06:03:30;;;;;;;6.93;5.65;;;18.40;84.00;;;;;;5070312;28;20047;-84
2021/06/10 06:05:59;;;;;;;;;;;18.50;83.90;;;;;;5072966;28;20063;-84
2021/06/10 06:08:25;;;;;;;7.45;5.32;;;18.60;84.30;;;;;;5109706;28;20361;-84
2021/06/10 06:10:52;;;;;;;7.40;5.78;;;18.60;84.00;;;;;;5060256;28;20034;-84
2021/06/10 06:13:31;;;;;;;8.63;7.65;;;18.70;83.80;;;;;;5077605;28;20047;-85
2021/06/10 06:16:18;;;;;;;9.55;6.63;;;18.80;83.40;;;;;;5092668;28;20393;-85
2021/06/10 06:18:45;;;;;;;7.38;6.20;;;18.80;83.40;;;;;;5076311;28;20027;-85
2021/06/10 06:21:12;;;;;;;8.82;6.45;;;18.90;83.50;;;;;;5094986;28;20047;-84
2021/06/10 06:23:41;;;;;;;7.78;6.50;;;19.00;83.50;;;;;;5072927;28;20410;-89
2021/06/10 06:26:09;;;;;;;8.05;6.15;;;19.10;83.50;;;;;;5091769;28;20031;-89
2021/06/10 06:28:36;;;;;;;7.95;6.25;;;19.10;84.00;;;;;;5080883;28;20032;-89
2021/06/10 06:31:02;;;;;;;7.55;6.45;;;19.20;83.10;;;;;;5071492;28;20043;-89
2021/06/10 06:33:28;;;;;;;7.93;6.50;;;19.30;83.00;;;;;;5098113;28;20103;-87
2021/06/10 06:35:55;;;;;;;8.68;5.97;;;19.40;82.70;;;;;;5097277;28;20046;-87
2021/06/10 06:38:21;;;;;;;8.60;6.65;;;19.50;82.60;;;;;;5080530;28;20055;-87
2021/06/10 06:40:48;;;;;;;8.38;6.40;;;19.50;82.00;;;;;;5082694;28;20016;-87
2021/06/10 06:43:17;;;;;;;9.18;5.75;;;19.60;81.80;;;;;;5052039;28;20028;-87
2021/06/10 06:45:43;;;;;;;6.13;5.43;;;19.70;81.80;;;;;;5057078;28;20428;-87
2021/06/10 06:48:10;;;;;;;8.20;6.07;;;19.80;81.80;;;;;;5076890;28;20028;-88
2021/06/10 06:50:36;;;;;;;5.75;4.97;;;19.80;82.30;;;;;;5075316;28;20028;-88
2021/06/10 06:53:03;;;;;;;6.15;4.38;;;19.90;81.70;;;;;;5103409;28;20019;-88
2021/06/10 06:55:29;;;;;;;8.20;6.13;;;20.00;81.70;;;;;;5097032;28;20020;-88
2021/06/10 06:57:55;;;;;;;6.55;5.20;;;20.10;81.40;;;;;;5097105;28;20034;-89
2021/06/10 07:00:22;;;;;;;5.93;4.80;;;20.20;81.50;;;;;;5068138;28;20032;-88
2021/06/10 07:02:48;;;;;;;6.68;5.47;;;20.30;81.60;;;;;;5059918;28;20077;-88
2021/06/10 07:05:15;;;;;;;6.70;5.38;;;20.40;81.40;;;;;;5060288;28;20032;-88
2021/06/10 07:07:41;;;;;;;6.38;5.00;;;20.50;81.10;;;;;;5111608;28;20549;-88
2021/06/10 07:10:07;;;;;;;7.80;4.43;;;20.60;80.70;;;;;;5087958;28;20575;-88
2021/06/10 07:12:33;;;;;;;6.82;4.97;;;20.70;80.60;;;;;;5078066;28;20036;-88
2021/06/10 07:14:59;;;;;;;5.13;3.78;;;20.70;80.00;;;;;;5035224;23;20049;-88
2021/06/10 07:17:25;;;;;;;6.30;4.55;;;20.80;78.40;;;;;;5069026;28;20039;-87
2021/06/10 07:19:52;;;;;;;4.78;3.85;;;20.90;76.40;;;;;;5060425;28;20083;-88
2021/06/10 07:22:18;;;;;;;4.50;3.35;;;21.00;73.60;;;;;;5059290;28;20433;-87
2021/06/10 07:24:46;;;;;;;4.50;2.85;;;21.00;72.80;;;;;;5054884;28;20021;-88
2021/06/10 07:27:13;;;;;;;5.60;2.72;;;21.10;72.90;;;;;;5073008;28;20025;-87
2021/06/10 07:29:39;;;;;;;3.85;2.20;;;21.20;71.60;;;;;;5058822;28;20032;-87
2021/06/10 07:32:05;;;;;;;2.25;2.03;;;21.30;70.90;;;;;;5068167;28;20030;-88
2021/06/10 07:34:31;;;;;;;4.40;2.65;;;21.30;69.30;;;;;;5052291;28;20025;-88
2021/06/10 07:36:57;;;;;;;3.67;2.30;;;21.40;69.10;;;;;;5064966;28;20116;-88
2021/06/10 07:39:22;;;;;;;4.55;3.13;;;21.50;68.60;;;;;;5057270;28;20024;-88
2021/06/10 07:41:48;;;;;;;4.68;3.10;;;21.60;67.50;;;;;;5043389;28;20123;-88
2021/06/10 07:44:14;;;;;;;4.93;3.00;;;21.70;67.30;;;;;;5063983;28;20025;-88
2021/06/10 07:46:39;;;;;;;3.40;2.53;;;21.80;67.50;;;;;;5052697;28;20127;-87
2021/06/10 07:49:05;;;;;;;3.90;2.90;;;21.90;68.10;;;;;;5076567;28;20166;-88
2021/06/10 07:51:31;;;;;;;4.88;3.30;;;22.00;67.20;;;;;;5042908;28;20173;-88
2021/06/10 07:53:56;;;;;;;4.75;2.78;;;22.10;66.50;;;;;;5043096;28;20096;-87
2021/06/10 07:56:22;;;;;;;2.83;2.15;;;22.20;67.20;;;;;;5056527;28;20076;-88
2021/06/10 07:58:47;;;;;;;4.70;2.45;;;22.30;67.00;;;;;;5042880;28;20016;-88
2021/06/10 08:01:13;;;;;;;3.78;2.10;;;22.40;65.90;;;;;;5045977;28;20083;-87
2021/06/10 08:03:40;;;;;;;3.13;2.10;;;22.60;66.40;;;;;;5054110;28;20059;-87
2021/06/10 08:06:06;;;;;;;2.47;1.83;;;22.70;66.10;;;;;;5060464;28;20037;-87
2021/06/10 08:08:32;;;;;;;3.33;2.15;;;22.80;66.70;;;;;;5048770;28;20033;-87
2021/06/10 08:11:03;;;;;;;2.95;1.88;;;22.90;66.50;;;;;;5052250;28;20040;-87
2021/06/10 08:13:29;;;;;;;2.70;2.05;;;23.00;66.10;;;;;;5072400;28;20033;-87
2021/06/10 08:15:54;;;;;;;3.75;2.25;;;23.10;66.70;;;;;;5059005;28;20578;-86
2021/06/10 08:18:20;;;;;;;4.53;2.42;;;23.20;66.30;;;;;;5028748;28;20064;-87
2021/06/10 08:20:46;;;;;;;3.40;2.60;;;23.30;66.40;;;;;;5071429;28;20037;-86
2021/06/10 08:23:12;;;;;;;7.03;2.83;;;23.40;66.20;;;;;;5072178;28;20035;-87
2021/06/10 08:25:44;;;;;;;5.25;3.13;;;23.50;65.80;;;;;;5072140;28;20032;-87
2021/06/10 08:28:12;;;;;;;6.45;3.20;;;23.60;65.60;;;;;;5059732;28;20039;-87
2021/06/10 08:30:38;;;;;;;4.63;3.28;;;23.70;65.10;;;;;;5071629;28;20036;-86
2021/06/10 08:33:04;;;;;;;4.95;3.20;;;23.80;65.20;;;;;;5055094;28;20495;-86
2021/06/10 08:35:30;;;;;;;5.22;3.58;;;23.90;65.90;;;;;;5060324;28;20152;-87
2021/06/10 08:37:56;;;;;;;7.10;3.50;;;23.90;65.50;;;;;;5070222;28;20052;-86
2021/06/10 08:40:22;;;;;;;4.63;3.30;;;24.10;65.20;;;;;;5055196;28;20029;-87
2021/06/10 08:42:48;;;;;;;5.63;3.38;;;24.10;65.10;;;;;;5058303;28;20093;-87
2021/06/10 08:45:16;;;;;;;5.30;3.38;;;24.20;65.10;;;;;;5048527;28;20429;-86
2021/06/10 08:47:47;;;;;;;5.70;3.13;;;24.30;65.60;;;;;;5075303;28;20025;-87
2021/06/10 08:50:23;;;;;;;6.28;4.03;;;24.40;65.50;;;;;;5057837;28;20028;-87
2021/06/10 08:52:52;;;;;;;6.03;4.43;;;24.50;63.50;;;;;;5075252;28;20024;-86
2021/06/10 08:55:18;;;;;;;5.57;3.40;;;24.50;62.20;;;;;;5058841;28;20024;-87
2021/06/10 08:57:44;;;;;;;4.68;2.97;;;24.50;62.60;;;;;;5058466;28;20381;-88
2021/06/10 09:00:11;;;;;;;5.20;3.30;;;24.60;62.80;;;;;;5055230;28;20020;-88
2021/06/10 09:02:38;;;;;;;4.30;3.00;;;24.60;62.50;;;;;;5061921;28;20025;-88
2021/06/10 09:05:07;;;;;;;8.57;4.00;;;24.80;62.00;;;;;;5033300;28;20029;-88
2021/06/10 09:07:37;;;;;;;7.03;3.22;;;24.80;61.90;;;;;;5073433;28;20088;-89
2021/06/10 09:10:05;;;;;;;5.00;3.20;;;24.90;61.40;;;;;;5080907;28;20020;-88
2021/06/10 09:12:49;;;;;;;4.75;3.25;;;24.90;61.00;;;;;;5075279;28;20047;-88
2021/06/10 09:15:17;;;;;;;4.60;3.10;;;25.00;61.70;;;;;;5078495;28;20044;-88
2021/06/10 09:17:43;;;;;;;4.63;3.00;;;25.10;61.60;;;;;;5073902;28;20020;-89
2021/06/10 09:20:18;;;;;;;4.05;3.30;;;25.20;62.40;;;;;;5088730;28;20518;-89
2021/06/10 09:22:44;;;;;;;4.18;3.00;;;25.30;60.80;;;;;;5077568;28;20477;-88
2021/06/10 09:25:11;;;;;;;4.15;2.80;;;25.30;61.00;;;;;;5069059;28;20035;-88
2021/06/10 09:28:13;;;;;;;3.97;2.85;;;25.40;61.30;;;;;;5060551;28;20021;-88
2021/06/10 09:30:48;;;;;;;4.80;3.03;;;25.40;60.50;;;;;;5000254;28;20037;-88
2021/06/10 09:33:16;;;;;;;4.70;3.28;;;25.50;59.40;;;;;;5090616;28;20036;-88
2021/06/10 09:35:44;;;;;;;5.07;3.10;;;25.60;59.40;;;;;;5074666;28;20020;-88
2021/06/10 09:38:19;;;;;;;4.28;2.88;;;25.60;60.00;;;;;;5092681;28;20047;-88
2021/06/10 09:40:45;;;;;;;4.45;3.17;;;25.70;60.40;;;;;;5091721;28;20024;-88
2021/06/10 09:43:12;;;;;;;3.85;2.90;;;25.70;60.20;;;;;;5039981;28;20029;-88
2021/06/10 09:45:42;;;;;;;6.10;3.10;;;25.80;60.60;;;;;;5064861;28;20043;-88
2021/06/10 09:48:08;;;;;;;4.82;3.50;;;25.90;61.30;;;;;;5078754;28;20385;-88
2021/06/10 09:50:42;;;;;;;4.78;3.15;;;26.00;59.50;;;;;;5067161;28;20047;-88
2021/06/10 09:53:09;;;;;;;4.15;3.08;;;26.00;58.20;;;;;;5068311;28;20029;-88
2021/06/10 09:55:44;;;;;;;5.25;3.35;;;26.00;58.80;;;;;;5061890;28;20024;-88
2021/06/10 09:58:13;;;;;;;5.38;3.97;;;26.10;59.40;;;;;;5078097;28;20031;-88
2021/06/10 10:00:50;;;;;;;6.35;4.03;;;26.10;58.20;;;;;;5082802;28;20473;-88
2021/06/10 10:03:28;;;;;;;4.63;3.17;;;26.20;56.60;;;;;;5083015;28;20024;-88
2021/06/10 10:05:58;;;;;;;6.03;3.45;;;26.10;57.10;;;;;;5078213;28;20043;-88
2021/06/10 10:09:18;;;;;;;4.80;3.97;;;26.20;57.40;;;;;;5077899;28;20496;-88
2021/06/10 10:11:43;;;;;;;7.03;4.30;;;26.20;58.00;;;;;;5093538;28;20292;-88
2021/06/10 10:14:12;;;;;;;5.93;4.32;;;26.20;57.30;;;;;;5041131;28;20053;-88
2021/06/10 10:16:38;;;;;;;4.43;3.33;;;26.20;57.30;;;;;;5068689;28;20020;-89
2021/06/10 10:19:04;;;;;;;6.35;3.35;;;26.20;57.60;;;;;;5074283;28;20025;-88
2021/06/10 10:21:32;;;;;;;5.47;4.15;;;26.30;58.60;;;;;;5061360;28;20113;-88
2021/06/10 10:24:03;;;;;;;5.05;3.78;;;26.30;56.40;;;;;;5077836;28;20049;-89
2021/06/10 10:26:32;;;;;;;4.80;3.40;;;26.30;56.50;;;;;;5081428;28;20024;-88
2021/06/10 10:29:00;;;;;;;5.10;3.00;;;26.30;56.30;;;;;;5077823;28;20031;-88
2021/06/10 10:31:27;;;;;;;8.00;3.88;;;26.40;57.40;;;;;;5077617;28;20024;-88
2021/06/10 10:33:53;;;;;;;4.60;3.17;;;26.40;57.10;;;;;;5077672;28;20347;-88
2021/06/10 10:36:31;;;;;;;4.80;3.17;;;26.50;57.50;;;;;;5077692;28;20523;-89
2021/06/10 10:39:01;;;;;;;3.42;2.70;;;26.50;57.30;;;;;;5077505;28;20401;-88
2021/06/10 10:41:28;;;;;;;;;;;26.60;58.00;;;;;;5078118;28;20020;-89
2021/06/10 10:44:26;;;;;;;3.05;2.20;;;26.60;58.80;;;;;;5077627;28;19950;-89
2021/06/10 10:47:10;;;;;;;2.70;2.10;;;26.70;58.90;;;;;;5047564;28;20039;-89
2021/06/10 10:49:53;;;;;;;2.97;2.42;;;26.80;58.60;;;;;;5049605;28;20447;-89
2021/06/10 10:53:15;;;;;;;3.03;2.15;;;26.90;57.30;;;;;;5077313;28;20020;-89
2021/06/10 10:55:42;;;;;;;3.25;2.15;;;27.00;57.80;;;;;;5085447;28;20510;-89
2021/06/10 10:58:19;;;;;;;3.92;2.08;;;27.00;57.30;;;;;;5060530;28;20024;-89
2021/06/10 11:00:49;;;;;;;4.00;2.40;;;27.10;57.50;;;;;;5072449;28;20474;-89
2021/06/10 11:03:41;;;;;;;3.38;2.50;;;27.10;56.10;;;;;;5077213;28;20059;-88
2021/06/10 11:06:26;;;;;;;3.35;2.65;;;27.20;56.30;;;;;;5081507;28;20045;-89
2021/06/10 11:09:00;;;;;;;3.38;2.20;;;27.20;56.00;;;;;;5075122;28;20520;-88
2021/06/10 11:11:55;;;;;;;4.28;3.13;;;27.30;56.20;;;;;;5065884;28;20026;-89
2021/06/10 11:14:58;;;;;;;4.90;3.10;;;27.30;56.80;;;;;;5062556;28;20066;-89
2021/06/10 11:17:26;;;;;;;3.35;2.70;;;27.40;54.80;;;;;;5075040;28;20032;-88
2021/06/10 11:19:53;;;;;;;3.30;2.20;;;27.40;55.10;;;;;;5065060;28;20020;-88
2021/06/10 11:22:25;;;;;;;2.40;2.10;;;27.40;55.30;;;;;;5068151;28;20423;-88
2021/06/10 11:24:51;;;;;;;3.28;2.40;;;27.40;55.50;;;;;;5076494;28;20028;-89
2021/06/10 11:27:35;;;;;;;4.15;2.90;;;27.60;55.50;;;;;;5077061;28;20091;-88
2021/06/10 11:30:15;;;;;;;4.68;2.85;;;27.60;54.70;;;;;;5076495;28;20043;-88
2021/06/10 11:33:09;;;;;;;4.55;2.70;;;27.60;55.00;;;;;;5076327;28;20028;-89
2021/06/10 11:35:50;;;;;;;4.03;2.47;;;27.70;55.30;;;;;;5067505;28;20032;-89
2021/06/10 11:38:18;;;;;;;;;;;27.70;55.60;;;;;;5076809;28;20068;-89
2021/06/10 11:40:49;;;;;;;4.13;2.40;;;27.80;55.50;;;;;;5094232;28;19911;-87
2021/06/10 11:43:17;;;;;;;4.75;3.13;;;27.80;54.60;;;;;;5089912;28;20492;-88
2021/06/10 11:45:44;;;;;;;4.20;2.92;;;27.90;54.30;;;;;;5066762;28;20052;-89
2021/06/10 11:48:10;;;;;;;5.22;3.05;;;27.90;54.60;;;;;;5061994;28;20078;-89
2021/06/10 11:50:39;;;;;;;4.18;2.80;;;27.90;54.20;;;;;;5076066;28;20031;-89
2021/06/10 11:53:07;;;;;;;4.10;2.92;;;28.00;54.90;;;;;;5074818;28;20023;-89
2021/06/10 11:55:39;;;;;;;4.65;3.05;;;28.10;55.40;;;;;;5081460;28;20020;-88
2021/06/10 11:58:09;;;;;;;3.60;3.05;;;28.10;54.50;;;;;;5075706;28;20012;-89
2021/06/10 12:00:44;;;;;;;;;;;28.20;54.00;;;;;;5063177;28;20109;-89
2021/06/10 12:03:13;;;;;;;3.58;2.60;;;28.20;53.30;;;;;;5094008;28;19911;-89
2021/06/10 12:05:50;;;;;;;4.53;2.72;;;28.20;52.90;;;;;;5075736;28;20176;-89
2021/06/10 12:08:19;;;;;;;3.88;3.10;;;28.20;52.90;;;;;;5059251;28;20028;-89
2021/06/10 12:10:59;;;;;;;3.47;2.40;;;28.20;50.90;;;;;;5069382;28;20027;-88
2021/06/10 12:13:32;;;;;;;3.35;2.30;;;28.20;52.20;;;;;;5079893;28;20031;-89
2021/06/10 12:16:00;;;;;;;3.30;2.55;;;28.20;52.50;;;;;;5080175;28;20369;-89
2021/06/10 12:18:27;;;;;;;5.28;3.10;;;28.30;52.90;;;;;;5059704;28;20046;-89
2021/06/10 12:20:59;;;;;;;3.70;2.20;;;28.30;50.10;;;;;;5075497;28;20031;-89
2021/06/10 12:23:37;;;;;;;2.65;1.90;;;28.30;50.60;;;;;;5075556;28;20039;-89
2021/06/10 12:26:04;;;;;;;3.03;2.22;;;28.30;51.00;;;;;;5075658;28;20023;-89
2021/06/10 12:28:32;;;;;;;2.63;1.90;;;28.40;50.50;;;;;;5075605;28;20359;-89
2021/06/10 12:31:10;;;;;;;3.60;2.25;;;28.50;50.10;;;;;;5075431;28;20023;-88
2021/06/10 12:33:36;;;;;;;5.32;2.05;;;28.50;49.40;;;;;;5060047;28;20024;-89
2021/06/10 12:36:04;;;;;;;3.75;1.98;;;28.50;49.80;;;;;;5058800;28;20040;-89
2021/06/10 12:38:31;;;;;;;2.25;1.50;;;28.50;48.70;;;;;;5075488;28;20488;-89
2021/06/10 12:41:14;;;;;;;4.13;2.00;;;28.60;48.20;;;;;;5075334;28;20115;-89
2021/06/10 12:43:40;;;;;;;5.85;2.10;;;28.60;47.70;;;;;;5075511;28;20550;-89
2021/06/10 12:46:06;;;;;;;2.05;1.75;;;28.60;48.10;;;;;;5088584;28;20028;-89
2021/06/10 12:48:35;;;;;;;4.07;2.05;;;28.70;48.20;;;;;;5058724;28;20024;-89
2021/06/10 12:51:24;;;;;;;3.70;2.10;;;28.70;46.60;;;;;;5074983;28;20032;-89
2021/06/10 12:53:58;;;;;;;3.33;2.30;;;28.70;47.30;;;;;;5093490;28;20032;-89
2021/06/10 12:56:48;;;;;;;3.40;2.17;;;28.80;47.30;;;;;;5074898;28;20074;-89
2021/06/10 12:59:32;;;;;;;3.38;2.05;;;28.80;47.10;;;;;;5093575;28;20027;-90
2021/06/10 13:02:08;;;;;;;3.10;2.20;;;28.90;47.00;;;;;;5080134;28;20016;-89